X

Important NEWS



New Hub Active

Miami is our new hub! Old members can request transfer via hr@dlxairways.net

Thank you very much and have nice flight.


Deluxe Airways.

X

Tours



Hello again, we created one nice test tour for all pilots to attend. also this is ment to be testing of our tour system

Available Tours

If you find some issues please inform us.

Thank you very much and have nice flight.


Deluxe Airways.

 METAR AND TAF INFORMATION
ArrayMETAR FOR LYTV
11702106 5 LYTV 250630Z VRB02KT CAVOK 17/12 Q1022 NOSIG LYTV 2019-04-25T06:30:00Z 42.38 18.72 17.0 12.0 0 2 6.21 30.177166 TRUE VFR METAR 5.0 LYTV 250600Z VRB01KT CAVOK 15/11 Q1022 NOSIG LYTV 2019-04-25T06:00:00Z 42.38 18.72 15.0 11.0 0 1 6.21 30.177166 TRUE VFR METAR 5.0 LYTV 250530Z VRB01KT CAVOK 13/11 Q1022 NOSIG LYTV 2019-04-25T05:30:00Z 42.38 18.72 13.0 11.0 0 1 6.21 30.177166 TRUE VFR METAR 5.0 LYTV 250500Z 00000KT CAVOK 11/10 Q1022 NOSIG LYTV 2019-04-25T05:00:00Z 42.38 18.72 11.0 10.0 0 0 6.21 30.177166 TRUE VFR METAR 5.0

 AIRPORT MAP

 RUNWAY INFORMATION
Runway 14 Runway length 8208 ft Runway width 148 ft
Runway elevation 7 ft Runway displaced threshold 0 ft Runway heading 139
Runway 32 Runway length 8208 ft Runway width 148 ft
Runway elevation 16 ft Runway displaced threshold 0 ft Runway heading 319

 AIRPORT FREQUENCIES
Type ARR Name APP Frequency 118 MHZ
Type TWR Name TWR Frequency 118 MHZ

 AIRPORT NEAR NAVIGATION AIDS
Type NDB Name Tivat Frequency 345 KHZ



Powered by Virtual Airlines Manager [v2.6.2]

Template code change by DeluxeAir